Terminal Aerodrome Forecast
Issued by NWS Sterling, VA

Current Version | Previous Version | Text Only | Print | Product List | Glossary Off
Versions: 1 2 3 4 5 6 7 8 9 10 11 12 13 14 15 16

000
FTUS41 KLWX 141100
TAFMRB
TAF
KMRB 141132Z 1412/1512 19009KT P6SM BKN200 BKN250
     FM141400 19013G23KT P6SM SCT050 BKN200
     FM150100 18009KT P6SM OVC080
     FM150400 18011G19KT 4SM -SHRA BR SCT020 OVC060
     FM151000 17013G21KT 3SM SHRA OVC008=

USA.gov is the U.S. government's official web portal to all federal, state and local government web resources and services.